Canalechevarria — EA2510 — position and weather

sailwx.info

Track history (hours):
 
Tides and Currents Weather Stations Pressure Air Temp Water Temp Dewpoint Dewpoint Depression Visibility Wind Speed Wind Dir Waves Ship Positions

Canalechevarria

Last reported at 2017-Nov-18 02:23 UTC. Time now 2017-Nov-18 02:41 UTC.
Position N 44°02' W 002°05'.

Length 26 m.

Type: Fishing. MMSI: 224218930.

Date/timePositionNaut miles runAvg speedWind from/ knotsBaromVisibWave heightAir tempDewpointWater temp
2017-Nov-18 02:23N 44°02' W 002°05'1 0.3
2017-Nov-17 22:18N 44°02' W 002°03'2 5.9
2017-Nov-17 21:59N 44°00' W 002°03'1 2.3
2017-Nov-17 21:30N 44°01' W 002°04'0 0.8
2017-Nov-17 20:59N 44°02' W 002°04'0 0.8
2017-Nov-17 20:30N 44°02' W 002°03'2 3.3
2017-Nov-17 20:00N 44°01' W 002°04'0 0.5
2017-Nov-17 19:30N 44°01' W 002°04'0 0.5
2017-Nov-17 19:00N 44°01' W 002°04'1 0.4
2017-Nov-17 17:37N 44°02' W 002°04'0 0.3
2017-Nov-17 17:30N 44°02' W 002°04'0 0.5
2017-Nov-17 17:00N 44°02' W 002°04'0 0.6
2017-Nov-17 16:26N 44°02' W 002°04'0 0.4
2017-Nov-17 15:57N 44°02' W 002°04'0 0.6
2017-Nov-17 15:29N 44°02' W 002°04'1 0.5
2017-Nov-17 13:55N 44°03' W 002°03'0 0.3
2017-Nov-17 13:05N 44°03' W 002°03'0 0.3
2017-Nov-17 13:00N 44°03' W 002°03'1 0.3
2017-Nov-17 10:49N 44°04' W 002°03'0 0.3
2017-Nov-17 10:24N 44°04' W 002°03'0 0.2
2017-Nov-17 10:00N 44°04' W 002°03'0 0.3
2017-Nov-17 09:30N 44°04' W 002°03'0 0.3
2017-Nov-17 09:00N 44°05' W 002°03'0 0.2
2017-Nov-17 08:05N 44°05' W 002°03'0 0.2
2017-Nov-17 08:00N 44°05' W 002°03'0 0.2
2017-Nov-17 07:30N 44°05' W 002°03'0 0.3
2017-Nov-17 07:00N 44°05' W 002°03'2 1.9
2017-Nov-17 05:52N 44°03' W 002°05'1 3.0
2017-Nov-17 05:29N 44°02' W 002°06'0 0.5
2017-Nov-17 05:00N 44°02' W 002°05'0 0.4
2017-Nov-17 04:28N 44°03' W 002°05'0 0.4
2017-Nov-17 03:55N 44°03' W 002°05'0 0.3
2017-Nov-17 02:47N 44°03' W 002°05'0 0.4
2017-Nov-17 02:19N 44°03' W 002°05'0 0.4
2017-Nov-17 01:59N 44°03' W 002°05'0 0.3
2017-Nov-17 01:14N 44°04' W 002°05'0 0.3
2017-Nov-17 01:00N 44°04' W 002°05'0 0.3
2017-Nov-17 00:30N 44°04' W 002°05'2 3.2
2017-Nov-17 00:00N 44°02' W 002°04'3 6.8
2017-Nov-16 23:30N 43°59' W 002°04'1 1.4
2017-Nov-16 23:00N 43°58' W 002°04'0 0.3
2017-Nov-16 22:30N 43°58' W 002°04'0 0.3
2017-Nov-16 22:00N 43°59' W 002°04'0 0.4
2017-Nov-16 21:30N 43°59' W 002°04'0 0.6
2017-Nov-16 21:00N 43°59' W 002°04'0 0.2
2017-Nov-16 20:30N 43°59' W 002°04'0 0.1
2017-Nov-16 20:00N 43°59' W 002°04'0 0.3
2017-Nov-16 19:30N 43°59' W 002°04'0 0.4
2017-Nov-16 19:00N 43°60' W 002°04'0 0.2
2017-Nov-16 18:30N 43°60' W 002°04'0 0.3
2017-Nov-16 18:00N 43°60' W 002°04'0 0.3
2017-Nov-16 17:30N 43°60' W 002°04'0 0.2
2017-Nov-16 17:00N 43°60' W 002°04'0 0.4
2017-Nov-16 16:30N 44°00' W 002°04'0 0.7
2017-Nov-16 16:00N 44°01' W 002°04'0 0.9
2017-Nov-16 15:28N 44°00' W 002°04'3 7.2
2017-Nov-16 15:00N 43°57' W 002°05'1 2.2
2017-Nov-16 14:30N 43°56' W 002°06'0 0.3
2017-Nov-16 14:00N 43°56' W 002°06'0 0.4
2017-Nov-16 13:30N 43°56' W 002°05'0 0.3
2017-Nov-16 13:00N 43°56' W 002°05'0 0.4
2017-Nov-16 12:30N 43°56' W 002°05'0 0.5
2017-Nov-16 12:00N 43°57' W 002°05'0 0.4
2017-Nov-16 11:30N 43°57' W 002°05'0 0.5
2017-Nov-16 11:00N 43°57' W 002°05'0 0.5
2017-Nov-16 10:30N 43°57' W 002°05'0 0.3
2017-Nov-16 10:00N 43°57' W 002°05'0 0.4
2017-Nov-16 09:30N 43°58' W 002°05'0 0.3
2017-Nov-16 09:00N 43°58' W 002°05'0 0.5
2017-Nov-16 08:30N 43°58' W 002°05'0 0.3
2017-Nov-16 08:00N 43°58' W 002°05'0 0.3
2017-Nov-16 07:30N 43°58' W 002°05'0 0.4
2017-Nov-16 07:00N 43°58' W 002°05'0 0.2
2017-Nov-16 06:30N 43°59' W 002°04'1 2.5
2017-Nov-16 06:00N 43°59' W 002°06'0 0.6
2017-Nov-16 05:30N 43°59' W 002°06'0 0.5
2017-Nov-16 05:00N 43°59' W 002°07'0 0.5
2017-Nov-16 04:30N 43°60' W 002°07'0 0.3
2017-Nov-16 04:00N 43°60' W 002°07'0 0.1
2017-Nov-16 03:30N 43°60' W 002°07'0 0.2
2017-Nov-16 03:00N 43°60' W 002°07'0 0.1
2017-Nov-16 02:30N 43°60' W 002°07'0 0.2
2017-Nov-16 02:00N 43°60' W 002°07'0 0.3
2017-Nov-16 01:30N 43°60' W 002°06'0 0.4
2017-Nov-16 01:00N 43°60' W 002°06'0 0.6
2017-Nov-16 00:30N 44°00' W 002°06'0 0.7
2017-Nov-16 00:00N 44°00' W 002°05'2 0.7
2017-Nov-15 21:41N 44°01' W 002°03'1 0.8
2017-Nov-15 20:17N 44°02' W 002°02'0 0.8
2017-Nov-15 20:00N 44°02' W 002°02'0 0.8
2017-Nov-15 19:30N 44°02' W 002°02'1 0.9
2017-Nov-15 18:32N 44°03' W 002°01'0 0.9
2017-Nov-15 18:20N 44°03' W 002°01'0 0.8
2017-Nov-15 17:57N 44°03' W 002°01'1 0.8
2017-Nov-15 16:21N 44°05' W 002°00'2 5.9
2017-Nov-15 15:57N 44°03' W 002°02'2 4.0
2017-Nov-15 15:30N 44°01' W 002°02'1 3.0
2017-Nov-15 15:00N 44°02' W 002°04'0 0.5
2017-Nov-15 14:30N 44°02' W 002°04'2 3.1
2017-Nov-15 14:00N 44°01' W 002°04'2 4.1
2017-Nov-15 13:30N 43°59' W 002°03'4 7.7
2017-Nov-15 13:00N 44°03' W 002°01'2 1.4
2017-Nov-15 11:38N 44°05' W 002°01'1 0.3
2017-Nov-15 08:15N 44°05' W 002°03'5 6.4
2017-Nov-15 07:29N 44°00' W 002°04'3 6.0
2017-Nov-15 07:00N 43°57' W 002°05'3 5.7
2017-Nov-15 06:30N 43°54' W 002°05'3 6.3
2017-Nov-15 06:00N 43°52' W 002°08'4 8.1
2017-Nov-15 05:30N 43°49' W 002°11'4 8.0
2017-Nov-15 05:00N 43°46' W 002°15'4 8.1
2017-Nov-15 04:30N 43°43' W 002°19'4 8.1
2017-Nov-15 04:00N 43°40' W 002°23'4 8.0
2017-Nov-15 03:30N 43°37' W 002°27'4 8.1
2017-Nov-15 03:00N 43°34' W 002°30'4 8.1
2017-Nov-15 02:30N 43°32' W 002°34'4 8.0
2017-Nov-15 02:00N 43°29' W 002°38'4 8.2
2017-Nov-15 01:30N 43°26' W 002°42'1 1.6
2017-Nov-15 01:00N 43°25' W 002°43'0 0.0
2017-Nov-15 00:30N 43°25' W 002°43'0 0.0
2017-Nov-15 00:00N 43°25' W 002°43'0 0.0
2017-Nov-14 18:52N 43°25' W 002°43'0 0.0
2017-Nov-14 18:30N 43°25' W 002°43'0 0.0
2017-Nov-14 18:01N 43°25' W 002°43'0 0.0
2017-Nov-14 17:31N 43°25' W 002°43'0 0.0
2017-Nov-14 17:01N 43°25' W 002°43'0 0.0
2017-Nov-14 12:20N 43°25' W 002°43'0 0.0
2017-Nov-14 12:00N 43°25' W 002°43'0 0.1
2017-Nov-14 11:30N 43°25' W 002°43'0 0.0
2017-Nov-14 11:00N 43°25' W 002°43'0 0.0
2017-Nov-14 10:30N 43°25' W 002°43'0 0.0
2017-Nov-14 10:00N 43°25' W 002°43'0 0.0
2017-Nov-14 09:30N 43°25' W 002°43'0 0.0
2017-Nov-14 09:00N 43°25' W 002°43'0 0.0
2017-Nov-14 08:30N 43°25' W 002°43'0 0.0
2017-Nov-14 08:00N 43°25' W 002°43'0 0.3
2017-Nov-14 07:30N 43°25' W 002°43'0 0.0
2017-Nov-14 07:00N 43°25' W 002°43'0 0.2
2017-Nov-14 06:30N 43°25' W 002°43'  
2017-Nov-10 11:45N 43°25' W 002°43'0 0.0
2017-Nov-10 11:30N 43°25' W 002°43'0 0.0
2017-Nov-10 11:00N 43°25' W 002°43'0 0.0
2017-Nov-10 10:31N 43°25' W 002°43'0 0.0
2017-Nov-10 10:00N 43°25' W 002°43'0 0.0
2017-Nov-10 08:42N 43°25' W 002°43'0 0.0
2017-Nov-10 08:30N 43°25' W 002°43'0 0.0
2017-Nov-10 08:00N 43°25' W 002°43'0 0.0
2017-Nov-10 07:30N 43°25' W 002°43'0 0.0
2017-Nov-09 11:36N 43°25' W 002°43'0 0.0
2017-Nov-09 11:30N 43°25' W 002°43'0 0.0
2017-Nov-09 11:00N 43°25' W 002°43'0 0.0
2017-Nov-09 10:30N 43°25' W 002°43'0 0.0
2017-Nov-09 10:00N 43°25' W 002°43'0 0.0
2017-Nov-09 09:30N 43°25' W 002°43'0 0.0
2017-Nov-09 09:00N 43°25' W 002°43'0 0.0
2017-Nov-09 08:30N 43°25' W 002°43'0 0.0
2017-Nov-09 08:00N 43°25' W 002°43'0 0.0
2017-Nov-09 07:30N 43°25' W 002°43'0 0.0
2017-Nov-08 09:56N 43°25' W 002°43'0 0.0
2017-Nov-08 09:29N 43°25' W 002°43'0 0.0
2017-Nov-08 09:00N 43°25' W 002°43'0 0.0
2017-Nov-08 08:30N 43°25' W 002°43'0 0.0
2017-Nov-08 08:00N 43°25' W 002°43'0 0.0
2017-Nov-08 07:30N 43°25' W 002°43'  
Track history (hours):
 
Tides and Currents Weather Stations Pressure Air Temp Water Temp Dewpoint Dewpoint Depression Visibility Wind Speed Wind Dir Waves Ship Positions

Canalechevarria

Last reported at 2017-Nov-18 02:23 UTC. Time now 2017-Nov-18 02:41 UTC.
Position N 44°02' W 002°05'.

Length 26 m.

Type: Fishing. MMSI: 224218930.

Date/timePositionNaut miles runAvg speedWind from/ knotsBaromVisibWave heightAir tempDewpointWater temp
2017-Nov-18 02:23N 44°02' W 002°05'1 0.3
2017-Nov-17 22:18N 44°02' W 002°03'2 5.9
2017-Nov-17 21:59N 44°00' W 002°03'1 2.3
2017-Nov-17 21:30N 44°01' W 002°04'0 0.8
2017-Nov-17 20:59N 44°02' W 002°04'0 0.8
2017-Nov-17 20:30N 44°02' W 002°03'2 3.3
2017-Nov-17 20:00N 44°01' W 002°04'0 0.5
2017-Nov-17 19:30N 44°01' W 002°04'0 0.5
2017-Nov-17 19:00N 44°01' W 002°04'1 0.4
2017-Nov-17 17:37N 44°02' W 002°04'0 0.3
2017-Nov-17 17:30N 44°02' W 002°04'0 0.5
2017-Nov-17 17:00N 44°02' W 002°04'0 0.6
2017-Nov-17 16:26N 44°02' W 002°04'0 0.4
2017-Nov-17 15:57N 44°02' W 002°04'0 0.6
2017-Nov-17 15:29N 44°02' W 002°04'1 0.5
2017-Nov-17 13:55N 44°03' W 002°03'0 0.3
2017-Nov-17 13:05N 44°03' W 002°03'0 0.3
2017-Nov-17 13:00N 44°03' W 002°03'1 0.3
2017-Nov-17 10:49N 44°04' W 002°03'0 0.3
2017-Nov-17 10:24N 44°04' W 002°03'0 0.2
2017-Nov-17 10:00N 44°04' W 002°03'0 0.3
2017-Nov-17 09:30N 44°04' W 002°03'0 0.3
2017-Nov-17 09:00N 44°05' W 002°03'0 0.2
2017-Nov-17 08:05N 44°05' W 002°03'0 0.2
2017-Nov-17 08:00N 44°05' W 002°03'0 0.2
2017-Nov-17 07:30N 44°05' W 002°03'0 0.3
2017-Nov-17 07:00N 44°05' W 002°03'2 1.9
2017-Nov-17 05:52N 44°03' W 002°05'1 3.0
2017-Nov-17 05:29N 44°02' W 002°06'0 0.5
2017-Nov-17 05:00N 44°02' W 002°05'0 0.4
2017-Nov-17 04:28N 44°03' W 002°05'0 0.4
2017-Nov-17 03:55N 44°03' W 002°05'0 0.3
2017-Nov-17 02:47N 44°03' W 002°05'0 0.4
2017-Nov-17 02:19N 44°03' W 002°05'0 0.4
2017-Nov-17 01:59N 44°03' W 002°05'0 0.3
2017-Nov-17 01:14N 44°04' W 002°05'0 0.3
2017-Nov-17 01:00N 44°04' W 002°05'0 0.3
2017-Nov-17 00:30N 44°04' W 002°05'2 3.2
2017-Nov-17 00:00N 44°02' W 002°04'3 6.8
2017-Nov-16 23:30N 43°59' W 002°04'1 1.4
2017-Nov-16 23:00N 43°58' W 002°04'0 0.3
2017-Nov-16 22:30N 43°58' W 002°04'0 0.3
2017-Nov-16 22:00N 43°59' W 002°04'0 0.4
2017-Nov-16 21:30N 43°59' W 002°04'0 0.6
2017-Nov-16 21:00N 43°59' W 002°04'0 0.2
2017-Nov-16 20:30N 43°59' W 002°04'0 0.1
2017-Nov-16 20:00N 43°59' W 002°04'0 0.3
2017-Nov-16 19:30N 43°59' W 002°04'0 0.4
2017-Nov-16 19:00N 43°60' W 002°04'0 0.2
2017-Nov-16 18:30N 43°60' W 002°04'0 0.3
2017-Nov-16 18:00N 43°60' W 002°04'0 0.3
2017-Nov-16 17:30N 43°60' W 002°04'0 0.2
2017-Nov-16 17:00N 43°60' W 002°04'0 0.4
2017-Nov-16 16:30N 44°00' W 002°04'0 0.7
2017-Nov-16 16:00N 44°01' W 002°04'0 0.9
2017-Nov-16 15:28N 44°00' W 002°04'3 7.2
2017-Nov-16 15:00N 43°57' W 002°05'1 2.2
2017-Nov-16 14:30N 43°56' W 002°06'0 0.3
2017-Nov-16 14:00N 43°56' W 002°06'0 0.4
2017-Nov-16 13:30N 43°56' W 002°05'0 0.3
2017-Nov-16 13:00N 43°56' W 002°05'0 0.4
2017-Nov-16 12:30N 43°56' W 002°05'0 0.5
2017-Nov-16 12:00N 43°57' W 002°05'0 0.4
2017-Nov-16 11:30N 43°57' W 002°05'0 0.5
2017-Nov-16 11:00N 43°57' W 002°05'0 0.5
2017-Nov-16 10:30N 43°57' W 002°05'0 0.3
2017-Nov-16 10:00N 43°57' W 002°05'0 0.4
2017-Nov-16 09:30N 43°58' W 002°05'0 0.3
2017-Nov-16 09:00N 43°58' W 002°05'0 0.5
2017-Nov-16 08:30N 43°58' W 002°05'0 0.3
2017-Nov-16 08:00N 43°58' W 002°05'0 0.3
2017-Nov-16 07:30N 43°58' W 002°05'0 0.4
2017-Nov-16 07:00N 43°58' W 002°05'0 0.2
2017-Nov-16 06:30N 43°59' W 002°04'1 2.5
2017-Nov-16 06:00N 43°59' W 002°06'0 0.6
2017-Nov-16 05:30N 43°59' W 002°06'0 0.5
2017-Nov-16 05:00N 43°59' W 002°07'0 0.5
2017-Nov-16 04:30N 43°60' W 002°07'0 0.3
2017-Nov-16 04:00N 43°60' W 002°07'0 0.1
2017-Nov-16 03:30N 43°60' W 002°07'0 0.2
2017-Nov-16 03:00N 43°60' W 002°07'0 0.1
2017-Nov-16 02:30N 43°60' W 002°07'0 0.2
2017-Nov-16 02:00N 43°60' W 002°07'0 0.3
2017-Nov-16 01:30N 43°60' W 002°06'0 0.4
2017-Nov-16 01:00N 43°60' W 002°06'0 0.6
2017-Nov-16 00:30N 44°00' W 002°06'0 0.7
2017-Nov-16 00:00N 44°00' W 002°05'2 0.7
2017-Nov-15 21:41N 44°01' W 002°03'1 0.8
2017-Nov-15 20:17N 44°02' W 002°02'0 0.8
2017-Nov-15 20:00N 44°02' W 002°02'0 0.8
2017-Nov-15 19:30N 44°02' W 002°02'1 0.9
2017-Nov-15 18:32N 44°03' W 002°01'0 0.9
2017-Nov-15 18:20N 44°03' W 002°01'0 0.8
2017-Nov-15 17:57N 44°03' W 002°01'1 0.8
2017-Nov-15 16:21N 44°05' W 002°00'2 5.9
2017-Nov-15 15:57N 44°03' W 002°02'2 4.0
2017-Nov-15 15:30N 44°01' W 002°02'1 3.0
2017-Nov-15 15:00N 44°02' W 002°04'0 0.5
2017-Nov-15 14:30N 44°02' W 002°04'2 3.1
2017-Nov-15 14:00N 44°01' W 002°04'2 4.1
2017-Nov-15 13:30N 43°59' W 002°03'4 7.7
2017-Nov-15 13:00N 44°03' W 002°01'2 1.4
2017-Nov-15 11:38N 44°05' W 002°01'1 0.3
2017-Nov-15 08:15N 44°05' W 002°03'5 6.4
2017-Nov-15 07:29N 44°00' W 002°04'3 6.0
2017-Nov-15 07:00N 43°57' W 002°05'3 5.7
2017-Nov-15 06:30N 43°54' W 002°05'3 6.3
2017-Nov-15 06:00N 43°52' W 002°08'4 8.1
2017-Nov-15 05:30N 43°49' W 002°11'4 8.0
2017-Nov-15 05:00N 43°46' W 002°15'4 8.1
2017-Nov-15 04:30N 43°43' W 002°19'4 8.1
2017-Nov-15 04:00N 43°40' W 002°23'4 8.0
2017-Nov-15 03:30N 43°37' W 002°27'4 8.1
2017-Nov-15 03:00N 43°34' W 002°30'4 8.1
2017-Nov-15 02:30N 43°32' W 002°34'4 8.0
2017-Nov-15 02:00N 43°29' W 002°38'4 8.2
2017-Nov-15 01:30N 43°26' W 002°42'1 1.6
2017-Nov-15 01:00N 43°25' W 002°43'0 0.0
2017-Nov-15 00:30N 43°25' W 002°43'0 0.0
2017-Nov-15 00:00N 43°25' W 002°43'0 0.0
2017-Nov-14 18:52N 43°25' W 002°43'0 0.0
2017-Nov-14 18:30N 43°25' W 002°43'0 0.0
2017-Nov-14 18:01N 43°25' W 002°43'0 0.0
2017-Nov-14 17:31N 43°25' W 002°43'0 0.0
2017-Nov-14 17:01N 43°25' W 002°43'0 0.0
2017-Nov-14 12:20N 43°25' W 002°43'0 0.0
2017-Nov-14 12:00N 43°25' W 002°43'0 0.1
2017-Nov-14 11:30N 43°25' W 002°43'0 0.0
2017-Nov-14 11:00N 43°25' W 002°43'0 0.0
2017-Nov-14 10:30N 43°25' W 002°43'0 0.0
2017-Nov-14 10:00N 43°25' W 002°43'0 0.0
2017-Nov-14 09:30N 43°25' W 002°43'0 0.0
2017-Nov-14 09:00N 43°25' W 002°43'0 0.0
2017-Nov-14 08:30N 43°25' W 002°43'0 0.0
2017-Nov-14 08:00N 43°25' W 002°43'0 0.3
2017-Nov-14 07:30N 43°25' W 002°43'0 0.0
2017-Nov-14 07:00N 43°25' W 002°43'0 0.2
2017-Nov-14 06:30N 43°25' W 002°43'  
2017-Nov-10 11:45N 43°25' W 002°43'0 0.0
2017-Nov-10 11:30N 43°25' W 002°43'0 0.0
2017-Nov-10 11:00N 43°25' W 002°43'0 0.0
2017-Nov-10 10:31N 43°25' W 002°43'0 0.0
2017-Nov-10 10:00N 43°25' W 002°43'0 0.0
2017-Nov-10 08:42N 43°25' W 002°43'0 0.0
2017-Nov-10 08:30N 43°25' W 002°43'0 0.0
2017-Nov-10 08:00N 43°25' W 002°43'0 0.0
2017-Nov-10 07:30N 43°25' W 002°43'0 0.0
2017-Nov-09 11:36N 43°25' W 002°43'0 0.0
2017-Nov-09 11:30N 43°25' W 002°43'0 0.0
2017-Nov-09 11:00N 43°25' W 002°43'0 0.0
2017-Nov-09 10:30N 43°25' W 002°43'0 0.0
2017-Nov-09 10:00N 43°25' W 002°43'0 0.0
2017-Nov-09 09:30N 43°25' W 002°43'0 0.0
2017-Nov-09 09:00N 43°25' W 002°43'0 0.0
2017-Nov-09 08:30N 43°25' W 002°43'0 0.0
2017-Nov-09 08:00N 43°25' W 002°43'0 0.0
2017-Nov-09 07:30N 43°25' W 002°43'0 0.0
2017-Nov-08 09:56N 43°25' W 002°43'0 0.0
2017-Nov-08 09:29N 43°25' W 002°43'0 0.0
2017-Nov-08 09:00N 43°25' W 002°43'0 0.0
2017-Nov-08 08:30N 43°25' W 002°43'0 0.0
2017-Nov-08 08:00N 43°25' W 002°43'0 0.0
2017-Nov-08 07:30N 43°25' W 002°43'  

Dump ship's entire track history